Portada
METAR-TAF:

METAR-TAF

Aeroports :

Port Stanley, Illes Malvines

latitud: 51-49S, longitud: 058-27W, altitud: 74 m

Observació

L'informe es va fer fa 49 minuts, a les 13:50 UTC
Vent 4 kt del Oest/Nord-Oest
Temperatura 11°C
Humitat 71%
Pressió 1016 hPa
Visibilitat 10 km o més
Escasses núvols a una alçada de 1700 ft
Cel ennuvolat a una alçada de 23000 ft

METAR: EGYP 011350Z 30004KT 9999 FEW017 BKN230 11/06 Q1016 NOSIG

Hora: 11:39 (14:39 UTC)

Pronòstic

L'informe es va fer fa 3 hores i 29 minuts, a les 11:10 UTC
Pronòstic vàlid del 01 a les 12 UTC al 02 a les 06 UTC
Vent 8 kt del Oest
Visibilitat 10 km o més
Núvols disperses a una alçada de 3000 ft

TAF: EGYP 011110Z 0112/0206 27008KT 9999 SCT030

Observacions i pronòstics meteorològics de més de 4000 aeroports (METAR i TAF).

Les estacions disponibles són els punts grocs i vermells al mapa.

Posi el ratolí al punt desitjat per veure el nom de l'estació.

Feu clic per veure les observacions i els pronòstics meteorològics.

Per canviar el mapa: feu clic els botons verds amb una creu de color negre per apropar; al botó verd amb un guió per allunyar la imatge; o en les fletxes verdes per a mapes adjacents.


METAR-TAF: